Time;durP1;ratioP1;P1;durP2;ratioP2;P2;SDS_P1;SDS_P2;PMS_P1;PMS_P2;Temp;Humidity;BMP_temperature;BMP_pressure;BME280_temperature;BME280_humidity;BME280_pressure;Samples;Min_cycle;Max_cycle;Signal;HPM_P1;HPM_P2
2022/08/30 00:02:27;;;;;;;1.42;0.80;;;25.10;96.40;;;;;;4904630;29;20511;-75
2022/08/30 00:04:55;;;;;;;1.75;0.98;;;25.40;96.40;;;;;;4901528;29;20450;-75
2022/08/30 00:07:23;;;;;;;3.88;0.88;;;25.30;95.30;;;;;;4900128;29;20103;-74
2022/08/30 00:09:51;;;;;;;2.45;1.05;;;25.00;95.90;;;;;;4908666;29;20075;-76
2022/08/30 00:12:19;;;;;;;2.38;1.23;;;25.00;95.80;;;;;;4913337;29;20032;-74
2022/08/30 00:14:48;;;;;;;2.75;1.20;;;25.00;96.10;;;;;;4903622;29;20036;-76
2022/08/30 00:17:15;;;;;;;1.38;0.60;;;25.00;95.90;;;;;;4906271;29;20460;-77
2022/08/30 00:19:42;;;;;;;1.45;0.80;;;25.10;95.70;;;;;;4910134;29;20051;-76
2022/08/30 00:22:10;;;;;;;2.92;0.73;;;25.60;96.30;;;;;;4905364;29;20039;-74
2022/08/30 00:24:38;;;;;;;3.13;0.88;;;25.80;95.40;;;;;;4912916;29;20536;-78
2022/08/30 00:27:05;;;;;;;1.73;0.85;;;25.80;95.40;;;;;;4912534;29;20748;-73
2022/08/30 00:29:32;;;;;;;1.70;0.90;;;25.70;95.30;;;;;;4889534;29;20032;-75
2022/08/30 00:32:01;;;;;;;4.07;1.33;;;25.50;95.30;;;;;;4904922;29;20035;-75
2022/08/30 00:34:31;;;;;;;2.70;1.27;;;25.60;95.10;;;;;;4900477;29;20088;-78
2022/08/30 00:36:59;;;;;;;2.00;1.10;;;25.60;95.40;;;;;;4900921;29;20327;-82
2022/08/30 00:39:26;;;;;;;1.33;0.65;;;25.60;95.50;;;;;;4899213;29;20131;-80
2022/08/30 00:41:54;;;;;;;1.95;0.95;;;25.70;95.10;;;;;;4906471;29;20029;-76
2022/08/30 00:44:21;;;;;;;1.83;0.88;;;26.20;95.20;;;;;;4910718;29;20100;-79
2022/08/30 00:46:48;;;;;;;2.17;0.90;;;26.50;94.30;;;;;;4914983;29;20035;-79
2022/08/30 00:49:16;;;;;;;2.15;0.85;;;26.40;94.50;;;;;;4915907;29;20036;-79
2022/08/30 00:51:43;;;;;;;5.47;1.00;;;26.20;94.40;;;;;;4885771;29;21138;-74
2022/08/30 00:54:12;;;;;;;2.10;0.88;;;26.30;94.60;;;;;;4904309;29;20076;-75
2022/08/30 00:56:40;;;;;;;3.28;1.05;;;26.50;95.00;;;;;;4905749;29;20387;-76
2022/08/30 00:59:09;;;;;;;3.78;1.10;;;26.50;94.20;;;;;;4902723;29;20036;-75
2022/08/30 01:01:37;;;;;;;2.47;0.52;;;26.30;94.80;;;;;;4904119;29;20056;-77
2022/08/30 01:04:07;;;;;;;1.73;0.80;;;26.90;94.40;;;;;;4903894;29;20028;-75
2022/08/30 01:06:35;;;;;;;1.00;0.80;;;26.90;93.70;;;;;;4911377;29;20076;-75
2022/08/30 01:09:05;;;;;;;1.52;0.70;;;26.70;94.10;;;;;;4903992;29;20052;-75
2022/08/30 01:11:36;;;;;;;2.78;1.17;;;26.50;94.30;;;;;;4911471;29;20459;-76
2022/08/30 01:14:05;;;;;;;1.20;0.70;;;26.60;93.60;;;;;;4912571;29;20036;-75
2022/08/30 01:16:37;;;;;;;1.73;0.80;;;26.90;93.70;;;;;;4913095;29;20207;-74
2022/08/30 01:19:10;;;;;;;1.08;0.65;;;26.90;94.00;;;;;;4909946;29;20020;-77
2022/08/30 01:22:10;;;;;;;2.00;0.60;;;26.80;93.50;;;;;;4912713;29;20039;-73
2022/08/30 01:24:38;;;;;;;2.60;0.73;;;26.50;93.60;;;;;;4902608;29;20036;-75
2022/08/30 01:27:05;;;;;;;4.32;0.70;;;26.50;94.00;;;;;;4909711;29;20395;-72
2022/08/30 01:29:33;;;;;;;1.92;0.60;;;26.30;94.00;;;;;;4908398;29;20088;-79
2022/08/30 01:32:00;;;;;;;1.52;0.93;;;26.50;93.60;;;;;;4905458;29;20040;-76
2022/08/30 01:34:28;;;;;;;1.30;0.80;;;26.10;93.80;;;;;;4910102;29;20047;-76
2022/08/30 01:36:55;;;;;;;1.33;0.73;;;26.30;93.40;;;;;;4911862;29;20028;-74
2022/08/30 01:39:23;;;;;;;3.92;1.10;;;26.40;94.20;;;;;;4913746;29;20035;-74
2022/08/30 01:41:51;;;;;;;4.53;0.80;;;26.40;93.60;;;;;;4913821;29;20483;-77
2022/08/30 01:44:19;;;;;;;7.32;1.27;;;26.40;93.80;;;;;;4913726;29;20111;-75
2022/08/30 01:46:47;;;;;;;3.53;1.00;;;26.40;93.30;;;;;;4913086;29;20035;-77
2022/08/30 01:49:19;;;;;;;2.22;0.90;;;26.00;93.60;;;;;;4911833;29;20568;-74
2022/08/30 01:51:46;;;;;;;3.75;1.10;;;25.80;94.20;;;;;;4914645;29;20111;-76
2022/08/30 01:54:14;;;;;;;2.78;1.13;;;26.10;94.00;;;;;;4896330;29;20515;-75
2022/08/30 01:56:41;;;;;;;1.73;0.90;;;26.10;93.70;;;;;;4913195;29;20107;-76
2022/08/30 01:59:09;;;;;;;2.25;0.93;;;26.10;93.40;;;;;;4912483;29;20043;-76
2022/08/30 02:01:38;;;;;;;2.22;0.95;;;25.90;93.50;;;;;;4911168;29;20029;-73
2022/08/30 02:04:07;;;;;;;3.60;1.08;;;25.90;94.10;;;;;;4908200;29;20059;-76
2022/08/30 02:06:35;;;;;;;1.50;1.40;;;25.90;93.90;;;;;;4910912;29;20040;-81
2022/08/30 02:09:04;;;;;;;2.20;0.90;;;26.30;93.50;;;;;;4910256;29;20381;-79
2022/08/30 02:11:31;;;;;;;4.75;1.35;;;25.80;93.40;;;;;;4913692;29;20511;-75
2022/08/30 02:13:58;;;;;;;3.58;1.20;;;25.70;93.90;;;;;;4913903;29;20056;-77
2022/08/30 02:16:26;;;;;;;2.30;1.02;;;25.90;93.60;;;;;;4911707;29;20493;-73
2022/08/30 02:18:57;;;;;;;4.30;1.40;;;25.90;93.70;;;;;;4911801;29;20036;-75
2022/08/30 02:21:28;;;;;;;1.80;1.10;;;25.80;94.00;;;;;;4901331;29;20056;-77
2022/08/30 02:23:56;;;;;;;3.28;1.50;;;25.80;94.10;;;;;;4905824;29;20038;-76
2022/08/30 02:26:25;;;;;;;2.33;1.05;;;25.70;93.80;;;;;;4903421;29;20134;-74
2022/08/30 02:28:53;;;;;;;2.13;1.20;;;25.60;94.00;;;;;;4900335;29;20050;-76
2022/08/30 02:31:22;;;;;;;3.90;2.30;;;25.70;94.00;;;;;;4903090;29;20499;-76
2022/08/30 02:33:53;;;;;;;4.43;1.92;;;25.70;93.70;;;;;;4907200;29;20407;-77
2022/08/30 02:36:21;;;;;;;2.38;1.50;;;25.60;94.00;;;;;;4901658;29;20997;-76
2022/08/30 02:38:50;;;;;;;2.35;1.33;;;25.40;93.80;;;;;;4907145;29;20399;-78
2022/08/30 02:41:18;;;;;;;1.65;1.38;;;24.70;94.90;;;;;;4907374;29;20038;-77
2022/08/30 02:43:46;;;;;;;5.60;1.63;;;24.20;95.30;;;;;;4912854;29;20024;-75
2022/08/30 02:46:13;;;;;;;3.65;1.50;;;24.50;95.10;;;;;;4907034;29;20028;-79
2022/08/30 02:48:41;;;;;;;3.25;1.20;;;24.00;95.70;;;;;;4913696;29;20436;-77
2022/08/30 02:51:11;;;;;;;2.03;1.77;;;23.50;95.90;;;;;;4914085;29;20051;-78
2022/08/30 02:53:40;;;;;;;3.08;1.33;;;24.10;96.10;;;;;;4902188;29;20135;-76
2022/08/30 02:56:09;;;;;;;1.77;1.50;;;24.60;95.10;;;;;;4907404;29;20035;-74
2022/08/30 02:58:37;;;;;;;5.50;1.15;;;24.80;95.30;;;;;;4902974;29;20028;-81
2022/08/30 03:01:05;;;;;;;3.38;0.90;;;25.20;94.20;;;;;;4913806;29;20028;-77
2022/08/30 03:03:33;;;;;;;2.97;1.30;;;25.30;94.30;;;;;;4904735;29;20388;-78
2022/08/30 03:06:02;;;;;;;2.17;1.10;;;25.60;94.50;;;;;;4912341;29;20040;-78
2022/08/30 03:08:30;;;;;;;2.08;1.15;;;25.80;94.30;;;;;;4912049;29;20098;-78
2022/08/30 03:10:59;;;;;;;4.90;1.65;;;25.80;93.90;;;;;;4914370;29;20040;-75
2022/08/30 03:13:29;;;;;;;2.97;1.48;;;25.90;93.90;;;;;;4903755;29;20048;-78
2022/08/30 03:15:57;;;;;;;2.97;0.90;;;26.20;93.60;;;;;;4905933;29;20051;-75
2022/08/30 03:18:25;;;;;;;3.05;1.00;;;26.00;93.60;;;;;;4912131;29;20114;-74
2022/08/30 03:20:53;;;;;;;1.65;1.05;;;25.80;93.70;;;;;;4913070;29;20036;-75
2022/08/30 03:23:20;;;;;;;2.75;1.73;;;25.50;94.20;;;;;;4910797;29;20059;-74
2022/08/30 03:25:48;;;;;;;4.22;1.10;;;25.80;94.20;;;;;;4902323;29;20021;-73
2022/08/30 03:28:15;;;;;;;3.03;1.20;;;25.30;94.10;;;;;;4908029;29;20822;-72
2022/08/30 03:30:42;;;;;;;4.13;1.08;;;25.30;94.50;;;;;;4904242;29;20031;-73
2022/08/30 03:33:10;;;;;;;2.75;1.30;;;25.30;94.60;;;;;;4899730;29;20040;-75
2022/08/30 03:35:37;;;;;;;4.15;1.45;;;25.30;94.10;;;;;;4915128;29;20034;-79
2022/08/30 03:38:05;;;;;;;1.83;0.98;;;25.40;94.50;;;;;;4908860;29;20024;-73
2022/08/30 03:40:32;;;;;;;3.22;1.13;;;25.50;94.60;;;;;;4911646;29;20123;-73
2022/08/30 03:43:00;;;;;;;3.15;0.93;;;25.60;93.90;;;;;;4908106;29;20110;-72
2022/08/30 03:45:27;;;;;;;1.77;1.15;;;25.80;94.10;;;;;;4913146;29;20325;-73
2022/08/30 03:47:54;;;;;;;3.22;1.35;;;25.80;94.00;;;;;;4910264;29;20030;-71
2022/08/30 03:50:22;;;;;;;1.90;1.15;;;25.60;94.20;;;;;;4913031;29;20036;-72
2022/08/30 03:52:49;;;;;;;1.80;1.10;;;25.40;94.50;;;;;;4910405;29;20032;-72
2022/08/30 03:55:17;;;;;;;2.45;1.00;;;25.30;94.10;;;;;;4909964;29;20034;-72
2022/08/30 03:57:44;;;;;;;2.97;0.75;;;25.20;94.50;;;;;;4906305;29;20056;-73
2022/08/30 04:00:16;;;;;;;1.63;0.77;;;25.40;94.10;;;;;;4910075;29;20028;-73
2022/08/30 04:02:43;;;;;;;2.47;1.17;;;25.20;94.10;;;;;;4907890;29;20173;-74
2022/08/30 04:05:12;;;;;;;1.90;0.95;;;24.70;94.90;;;;;;4905666;29;20032;-73
2022/08/30 04:07:40;;;;;;;1.42;0.80;;;24.80;95.10;;;;;;4901530;29;20143;-73
2022/08/30 04:10:09;;;;;;;1.80;1.00;;;24.90;94.70;;;;;;4910536;29;20048;-74
2022/08/30 04:12:37;;;;;;;1.58;0.90;;;25.00;95.20;;;;;;4911006;29;20032;-74
2022/08/30 04:15:05;;;;;;;1.55;0.90;;;25.20;94.60;;;;;;4898516;29;20037;-75
2022/08/30 04:17:32;;;;;;;5.90;1.02;;;25.40;94.80;;;;;;4903574;29;20102;-74
2022/08/30 04:20:00;;;;;;;1.75;0.90;;;25.70;94.20;;;;;;4913325;29;20398;-74
2022/08/30 04:22:27;;;;;;;2.90;1.10;;;25.40;94.00;;;;;;4913063;29;20383;-74
2022/08/30 04:24:54;;;;;;;2.00;0.70;;;25.20;94.10;;;;;;4916997;29;20032;-73
2022/08/30 04:27:22;;;;;;;1.63;1.10;;;25.00;94.90;;;;;;4915499;29;20500;-72
2022/08/30 04:29:49;;;;;;;1.27;0.98;;;24.90;94.90;;;;;;4903768;29;20168;-73
2022/08/30 04:32:17;;;;;;;1.33;0.90;;;24.70;95.20;;;;;;4904820;29;20047;-74
2022/08/30 04:34:44;;;;;;;1.85;0.70;;;24.70;94.90;;;;;;4905547;29;20052;-73
2022/08/30 04:37:35;;;;;;;1.67;0.73;;;24.50;95.20;;;;;;4906346;29;20032;-73
2022/08/30 04:40:03;;;;;;;3.97;1.00;;;24.30;95.30;;;;;;4904595;29;20039;-72
2022/08/30 04:42:33;;;;;;;2.78;0.70;;;24.10;96.00;;;;;;4905332;29;20036;-72
2022/08/30 04:45:10;;;;;;;1.38;0.95;;;24.20;95.70;;;;;;4905128;29;20182;-73
2022/08/30 04:47:38;;;;;;;1.75;0.82;;;24.20;95.70;;;;;;4905016;29;20047;-73
2022/08/30 04:50:07;;;;;;;5.38;0.73;;;24.10;95.70;;;;;;4905956;29;20706;-73
2022/08/30 04:52:35;;;;;;;2.22;0.50;;;24.10;95.80;;;;;;4904612;29;20048;-73
2022/08/30 04:55:03;;;;;;;1.58;0.50;;;24.30;95.20;;;;;;4914778;29;20138;-72
2022/08/30 04:57:31;;;;;;;2.25;0.65;;;24.50;95.00;;;;;;4915119;29;20066;-72
2022/08/30 04:59:58;;;;;;;0.65;0.45;;;24.70;94.80;;;;;;4922103;29;20028;-73
2022/08/30 05:02:26;;;;;;;1.52;0.40;;;24.80;94.40;;;;;;4912154;29;20036;-73
2022/08/30 05:07:38;;;;;;;2.67;0.55;;;25.00;94.60;;;;;;4915004;29;20565;-74
2022/08/30 05:10:06;;;;;;;0.98;0.50;;;25.20;93.70;;;;;;4915667;29;20214;-73
2022/08/30 05:12:34;;;;;;;0.43;0.30;;;25.30;90.10;;;;;;4913374;29;20696;-74
2022/08/30 05:15:01;;;;;;;1.17;0.25;;;25.40;83.00;;;;;;4908444;29;20107;-75
2022/08/30 05:17:29;;;;;;;2.03;0.25;;;25.50;80.20;;;;;;4914763;29;20075;-75
2022/08/30 05:19:56;;;;;;;0.85;0.30;;;25.50;80.90;;;;;;4917132;29;20036;-76
2022/08/30 05:22:23;;;;;;;0.50;0.13;;;25.60;80.60;;;;;;4914091;29;20461;-75
2022/08/30 05:24:51;;;;;;;3.63;0.38;;;25.70;80.70;;;;;;4906222;29;20035;-74
2022/08/30 05:27:18;;;;;;;0.70;0.10;;;25.80;77.40;;;;;;4909411;29;20028;-75
2022/08/30 05:29:46;;;;;;;0.20;0.10;;;25.70;78.20;;;;;;4912027;29;20074;-75
2022/08/30 05:32:13;;;;;;;3.20;0.47;;;25.70;76.50;;;;;;4914698;29;20032;-75
2022/08/30 05:34:40;;;;;;;1.13;0.20;;;25.70;74.90;;;;;;4908472;29;20052;-76
2022/08/30 05:37:08;;;;;;;2.80;0.30;;;25.80;74.80;;;;;;4911908;29;20047;-76
2022/08/30 05:39:35;;;;;;;2.15;0.20;;;25.70;74.50;;;;;;4914300;29;20028;-76
2022/08/30 05:42:02;;;;;;;2.47;0.40;;;25.60;72.30;;;;;;4915204;29;20028;-82
2022/08/30 05:44:30;;;;;;;0.68;0.13;;;25.40;69.10;;;;;;4911455;29;20039;-76
2022/08/30 05:46:57;;;;;;;1.45;0.75;;;25.40;69.60;;;;;;4908673;29;20050;-77
2022/08/30 05:49:25;;;;;;;0.28;0.13;;;25.40;68.00;;;;;;4914659;29;20088;-76
2022/08/30 05:51:52;;;;;;;0.60;0.20;;;25.40;68.60;;;;;;4914662;29;20494;-75
2022/08/30 05:54:19;;;;;;;0.43;0.17;;;25.40;67.50;;;;;;4899818;29;20055;-77
2022/08/30 05:56:47;;;;;;;1.50;0.22;;;25.30;67.30;;;;;;4903022;29;20060;-76
2022/08/30 05:59:15;;;;;;;3.20;0.20;;;25.20;66.80;;;;;;4913143;29;20036;-76
2022/08/30 06:01:45;;;;;;;2.78;0.25;;;25.20;65.80;;;;;;4914595;29;20428;-74
2022/08/30 06:04:13;;;;;;;0.63;0.30;;;25.20;66.60;;;;;;4907563;29;20032;-74
2022/08/30 06:06:42;;;;;;;0.40;0.20;;;25.10;66.30;;;;;;4918845;29;20043;-75
2022/08/30 06:09:11;;;;;;;1.65;0.40;;;25.00;65.80;;;;;;4910235;29;20071;-75
2022/08/30 06:11:38;;;;;;;0.47;0.20;;;25.00;65.00;;;;;;4915038;29;20021;-75
2022/08/30 06:14:06;;;;;;;2.33;0.22;;;25.00;64.70;;;;;;4906518;29;20051;-75
2022/08/30 06:16:35;;;;;;;2.60;1.10;;;24.90;64.80;;;;;;4912087;29;20024;-75
2022/08/30 06:19:02;;;;;;;2.42;0.90;;;24.80;64.80;;;;;;4911207;29;20036;-74
2022/08/30 06:21:36;;;;;;;1.85;0.30;;;24.70;64.80;;;;;;4914769;29;20036;-74
2022/08/30 06:24:06;;;;;;;0.15;0.10;;;24.60;64.40;;;;;;4906132;29;20055;-75
2022/08/30 06:26:40;;;;;;;0.70;0.43;;;24.50;64.50;;;;;;4914771;29;20088;-75
2022/08/30 06:29:09;;;;;;;2.53;0.85;;;24.50;66.30;;;;;;4912758;29;20119;-75
2022/08/30 06:31:36;;;;;;;0.20;0.00;;;24.40;67.60;;;;;;4913922;29;20131;-75
2022/08/30 06:34:04;;;;;;;0.90;0.20;;;24.30;67.10;;;;;;4912964;29;20059;-75
2022/08/30 06:36:33;;;;;;;0.35;0.22;;;24.20;66.90;;;;;;4910897;29;20032;-75
2022/08/30 06:39:00;;;;;;;0.55;0.10;;;24.00;66.60;;;;;;4912626;29;20067;-75
2022/08/30 06:41:30;;;;;;;2.45;0.28;;;23.80;67.70;;;;;;4908619;29;20024;-74
2022/08/30 06:44:00;;;;;;;0.65;0.22;;;23.60;66.20;;;;;;4906839;29;20028;-74
2022/08/30 06:46:31;;;;;;;2.28;0.20;;;23.50;66.90;;;;;;4913729;29;20518;-73
2022/08/30 06:48:59;;;;;;;0.50;0.20;;;23.30;66.20;;;;;;4912805;29;20463;-74
2022/08/30 06:51:30;;;;;;;0.73;0.15;;;23.20;66.40;;;;;;4904751;29;20036;-72
2022/08/30 06:53:58;;;;;;;0.45;0.20;;;23.20;67.00;;;;;;4913028;29;20051;-74
2022/08/30 06:56:26;;;;;;;0.88;0.15;;;23.00;67.50;;;;;;4914160;29;20479;-75
2022/08/30 06:58:54;;;;;;;0.95;0.30;;;23.00;67.60;;;;;;4913633;29;20502;-76
2022/08/30 07:01:24;;;;;;;0.20;0.10;;;22.90;67.00;;;;;;4911431;29;20115;-76
2022/08/30 07:03:52;;;;;;;0.10;0.10;;;22.80;67.00;;;;;;4910479;29;20024;-75
2022/08/30 07:06:21;;;;;;;3.63;0.30;;;22.60;67.50;;;;;;4912817;29;20380;-75
2022/08/30 07:08:49;;;;;;;0.82;0.30;;;22.50;67.50;;;;;;4910967;29;20043;-73
2022/08/30 07:11:27;;;;;;;1.65;0.50;;;22.30;67.30;;;;;;4906865;29;20089;-73
2022/08/30 07:13:55;;;;;;;2.22;0.50;;;22.10;68.00;;;;;;4907538;29;20072;-73
2022/08/30 07:16:22;;;;;;;1.65;0.55;;;22.00;68.10;;;;;;4911906;29;20075;-73
2022/08/30 07:18:50;;;;;;;2.08;0.70;;;21.80;68.70;;;;;;4901664;29;20051;-73
2022/08/30 07:21:25;;;;;;;2.95;0.40;;;21.70;68.60;;;;;;4910810;29;20032;-75
2022/08/30 07:23:53;;;;;;;4.55;0.70;;;21.50;68.50;;;;;;4911912;29;20080;-73
2022/08/30 07:26:24;;;;;;;1.60;0.50;;;21.40;68.00;;;;;;4911934;29;20029;-73
2022/08/30 07:28:52;;;;;;;3.20;0.82;;;21.30;68.50;;;;;;4911088;29;20086;-73
2022/08/30 07:31:23;;;;;;;1.08;0.30;;;21.10;68.80;;;;;;4903261;29;20372;-73
2022/08/30 07:33:51;;;;;;;0.98;0.40;;;21.00;69.00;;;;;;4911552;29;20461;-73
2022/08/30 07:36:20;;;;;;;1.52;0.47;;;20.90;69.60;;;;;;4912069;29;20102;-74
2022/08/30 07:38:49;;;;;;;0.55;0.20;;;20.80;69.80;;;;;;4900834;29;20488;-73
2022/08/30 07:41:19;;;;;;;3.40;0.35;;;20.70;70.20;;;;;;4909366;29;20044;-73
2022/08/30 07:43:47;;;;;;;1.33;0.40;;;20.50;70.50;;;;;;4912265;29;20175;-73
2022/08/30 07:46:15;;;;;;;3.78;0.45;;;20.50;71.10;;;;;;4912021;29;20144;-74
2022/08/30 07:48:43;;;;;;;0.63;0.30;;;20.30;71.60;;;;;;4915121;29;20082;-73
2022/08/30 07:51:16;;;;;;;4.35;0.80;;;20.20;71.70;;;;;;4921627;29;20118;-75
2022/08/30 07:53:44;;;;;;;1.55;0.70;;;20.10;71.90;;;;;;4907815;29;20063;-74
2022/08/30 07:56:11;;;;;;;2.08;1.17;;;20.00;72.90;;;;;;4908175;29;20032;-74
2022/08/30 07:58:39;;;;;;;2.72;1.73;;;19.80;73.10;;;;;;4913652;29;20063;-72
2022/08/30 08:01:09;;;;;;;3.70;1.38;;;19.70;73.60;;;;;;4910750;29;20043;-76
2022/08/30 08:03:39;;;;;;;1.48;0.85;;;19.60;74.20;;;;;;4913924;29;20062;-74
2022/08/30 08:06:08;;;;;;;2.28;1.08;;;19.50;74.70;;;;;;4916561;29;20470;-73
2022/08/30 08:08:36;;;;;;;1.63;0.60;;;19.40;75.20;;;;;;4915477;29;20507;-75
2022/08/30 08:11:16;;;;;;;1.13;0.43;;;19.20;76.40;;;;;;4914187;29;20479;-73
2022/08/30 08:13:45;;;;;;;1.20;0.80;;;19.10;77.10;;;;;;4902033;29;20051;-73
2022/08/30 08:16:13;;;;;;;1.30;0.50;;;19.00;77.80;;;;;;4910013;29;20035;-72
2022/08/30 08:18:40;;;;;;;0.60;0.32;;;18.90;77.50;;;;;;4913525;29;20048;-74
2022/08/30 08:21:07;;;;;;;4.18;0.50;;;18.80;77.60;;;;;;4916609;29;20036;-74
2022/08/30 08:23:38;;;;;;;3.60;2.63;;;18.70;77.50;;;;;;4910795;29;20044;-72
2022/08/30 08:26:06;;;;;;;5.00;3.08;;;18.80;77.70;;;;;;4905975;29;20047;-73
2022/08/30 08:28:33;;;;;;;4.38;0.80;;;18.70;78.20;;;;;;4907380;29;20037;-72
2022/08/30 08:31:00;;;;;;;3.53;1.05;;;18.70;78.60;;;;;;4898488;29;20060;-73
2022/08/30 08:33:28;;;;;;;0.80;0.50;;;18.60;78.30;;;;;;4906156;29;22871;-73
2022/08/30 08:35:55;;;;;;;1.58;0.77;;;18.70;78.80;;;;;;4910167;29;20075;-74
2022/08/30 08:38:23;;;;;;;1.70;0.85;;;18.60;78.80;;;;;;4903591;29;20408;-73
2022/08/30 08:41:12;;;;;;;1.77;0.40;;;18.60;79.00;;;;;;4911446;29;20028;-74
2022/08/30 08:43:40;;;;;;;1.45;0.43;;;18.60;79.20;;;;;;4905270;29;20032;-74
2022/08/30 08:46:23;;;;;;;1.13;0.32;;;18.50;79.40;;;;;;4915972;29;20059;-74
2022/08/30 08:48:54;;;;;;;1.42;0.47;;;18.40;79.90;;;;;;4913152;29;20020;-74
2022/08/30 08:54:48;;;;;;;1.10;0.35;;;18.30;80.50;;;;;;4912006;29;20067;-74
2022/08/30 08:57:16;;;;;;;3.55;0.90;;;18.20;80.90;;;;;;4867620;29;20051;-74
2022/08/30 08:59:44;;;;;;;0.90;0.43;;;18.10;81.40;;;;;;4900682;29;20047;-74
2022/08/30 09:02:33;;;;;;;0.80;0.30;;;18.00;81.50;;;;;;4911496;29;20151;-72
2022/08/30 09:05:02;;;;;;;1.15;0.30;;;17.90;81.90;;;;;;4906663;29;20028;-75
2022/08/30 09:07:58;;;;;;;0.60;0.40;;;17.90;81.90;;;;;;4913670;29;20218;-74
2022/08/30 09:10:26;;;;;;;1.63;0.52;;;17.80;82.40;;;;;;4911858;29;20111;-74
2022/08/30 09:12:54;;;;;;;3.40;0.50;;;17.70;82.50;;;;;;4911085;29;20035;-74
2022/08/30 09:15:31;;;;;;;0.73;0.50;;;17.70;82.80;;;;;;4912985;29;20151;-74
2022/08/30 09:18:10;;;;;;;1.67;0.80;;;17.60;83.30;;;;;;4912815;29;20028;-75
2022/08/30 09:20:46;;;;;;;0.80;0.30;;;17.50;83.60;;;;;;4914319;29;20455;-75
2022/08/30 09:23:16;;;;;;;1.27;1.00;;;17.50;83.50;;;;;;4908227;29;20056;-75
2022/08/30 09:25:55;;;;;;;1.40;1.08;;;17.50;83.90;;;;;;4897931;29;20024;-73
2022/08/30 09:28:31;;;;;;;3.80;1.00;;;17.50;84.00;;;;;;4913703;29;20224;-73
2022/08/30 09:31:07;;;;;;;2.00;1.33;;;17.40;84.20;;;;;;4916332;29;20104;-75
2022/08/30 09:33:35;;;;;;;;;;;17.30;84.40;;;;;;4912505;29;20032;-78
2022/08/30 09:36:43;;;;;;;2.30;1.60;;;17.30;84.90;;;;;;4914726;29;20264;-75
2022/08/30 09:39:36;;;;;;;4.20;0.82;;;17.30;85.90;;;;;;4832514;29;20562;-73
2022/08/30 09:42:21;;;;;;;3.33;0.50;;;17.20;85.80;;;;;;4908495;29;20523;-73
2022/08/30 09:44:48;;;;;;;2.70;0.98;;;17.20;86.20;;;;;;4915614;29;20036;-74
2022/08/30 09:47:30;;;;;;;3.03;0.60;;;17.20;86.60;;;;;;4913795;29;20298;-73
2022/08/30 09:50:10;;;;;;;1.90;0.20;;;17.10;86.80;;;;;;4911588;29;20044;-76
2022/08/30 09:53:08;;;;;;;2.08;0.20;;;17.10;87.10;;;;;;4911213;29;20061;-75
2022/08/30 09:55:42;;;;;;;1.80;0.40;;;17.10;87.70;;;;;;4902475;29;20048;-75
2022/08/30 09:58:18;;;;;;;1.65;0.22;;;17.10;88.00;;;;;;4913111;29;20025;-74
2022/08/30 10:01:07;;;;;;;1.10;0.30;;;17.00;88.30;;;;;;4916039;29;20135;-74
2022/08/30 10:03:56;;;;;;;0.70;0.40;;;16.90;88.40;;;;;;4908290;29;20020;-75
2022/08/30 10:06:49;;;;;;;1.25;0.40;;;16.80;89.00;;;;;;4916550;29;20040;-74
2022/08/30 10:09:31;;;;;;;1.45;0.50;;;16.80;89.30;;;;;;4911577;29;20424;-75
2022/08/30 10:12:20;;;;;;;1.98;0.75;;;16.70;89.80;;;;;;4905645;29;20042;-74
2022/08/30 10:14:59;;;;;;;0.70;0.20;;;16.60;90.10;;;;;;4913457;29;20044;-74
2022/08/30 10:17:37;;;;;;;1.40;0.50;;;16.50;90.30;;;;;;4910633;29;20091;-75
2022/08/30 10:20:17;;;;;;;0.05;0.05;;;16.40;90.50;;;;;;4911656;29;20042;-75
2022/08/30 10:22:50;;;;;;;2.17;0.30;;;16.30;90.50;;;;;;4908975;29;20038;-75
2022/08/30 10:25:33;;;;;;;0.82;0.30;;;16.30;90.60;;;;;;4912234;29;20036;-74
2022/08/30 10:28:07;;;;;;;2.25;0.50;;;16.30;90.70;;;;;;4890076;29;20471;-75
2022/08/30 10:30:38;;;;;;;0.95;0.20;;;16.20;90.90;;;;;;4915328;29;20559;-75
2022/08/30 10:33:13;;;;;;;6.03;0.20;;;16.20;91.20;;;;;;4911566;29;20132;-76
2022/08/30 10:35:54;;;;;;;0.70;0.20;;;16.10;91.40;;;;;;4902703;29;20035;-73
2022/08/30 10:38:33;;;;;;;0.50;0.17;;;16.00;91.50;;;;;;4908164;29;20171;-72
2022/08/30 10:41:29;;;;;;;0.52;0.20;;;15.90;91.50;;;;;;4908533;29;20488;-73
2022/08/30 10:44:11;;;;;;;1.38;0.20;;;15.90;91.70;;;;;;4904558;29;20519;-74
2022/08/30 10:47:09;;;;;;;0.50;0.22;;;15.80;91.70;;;;;;4913020;29;20094;-74
2022/08/30 10:49:50;;;;;;;0.50;0.30;;;15.80;91.90;;;;;;4912959;29;20032;-75
2022/08/30 10:52:55;;;;;;;0.45;0.32;;;15.70;92.00;;;;;;4910589;29;20107;-75
2022/08/30 10:55:54;;;;;;;1.70;0.20;;;15.60;92.10;;;;;;4904364;29;20543;-76
2022/08/30 10:58:22;;;;;;;1.55;0.17;;;15.70;92.10;;;;;;4904653;29;20028;-73
2022/08/30 11:01:13;;;;;;;1.40;0.20;;;15.60;92.20;;;;;;4891261;29;20044;-74
2022/08/30 11:04:11;;;;;;;3.35;0.30;;;15.60;92.10;;;;;;4903806;29;20050;-75
2022/08/30 11:06:56;;;;;;;0.75;0.13;;;15.70;92.30;;;;;;4913477;29;20035;-73
2022/08/30 11:09:38;;;;;;;2.97;0.10;;;15.60;92.40;;;;;;4904964;29;20051;-74
2022/08/30 11:12:35;;;;;;;0.70;0.25;;;15.60;92.60;;;;;;4912684;29;20032;-74
2022/08/30 11:15:23;;;;;;;2.17;0.30;;;15.70;92.50;;;;;;4903692;29;20395;-75
2022/08/30 11:18:01;;;;;;;0.38;0.15;;;15.70;92.30;;;;;;4898964;29;20071;-74
2022/08/30 11:20:48;;;;;;;0.50;0.35;;;15.80;92.10;;;;;;4900333;29;20028;-75
2022/08/30 11:23:35;;;;;;;1.92;0.60;;;15.90;92.10;;;;;;4901073;29;20294;-76
2022/08/30 11:26:06;;;;;;;;;;;16.00;92.00;;;;;;4898580;29;20095;-73
2022/08/30 11:28:36;;;;;;;3.45;0.10;;;16.00;92.00;;;;;;4901894;29;20025;-73
2022/08/30 11:31:30;;;;;;;2.60;0.30;;;16.00;91.90;;;;;;4916161;29;20356;-74
2022/08/30 11:33:59;;;;;;;0.13;0.10;;;16.00;92.00;;;;;;4908559;29;20040;-74
2022/08/30 11:36:38;;;;;;;3.67;0.30;;;15.90;92.00;;;;;;4909972;29;20035;-76
2022/08/30 11:39:10;;;;;;;2.60;0.20;;;15.90;92.00;;;;;;4910893;29;20024;-75
2022/08/30 11:42:07;;;;;;;0.30;0.20;;;15.90;92.00;;;;;;4906332;29;20031;-75
2022/08/30 11:44:35;;;;;;;1.25;0.40;;;15.90;92.00;;;;;;4903276;29;20136;-75
2022/08/30 11:47:38;;;;;;;0.68;0.45;;;15.90;92.00;;;;;;4914524;29;20043;-75
2022/08/30 11:50:12;;;;;;;1.60;0.15;;;15.90;92.10;;;;;;4911763;29;20507;-74
2022/08/30 11:52:51;;;;;;;0.50;0.30;;;15.80;92.20;;;;;;4910094;29;20103;-75
2022/08/30 11:55:32;;;;;;;1.20;0.20;;;15.70;92.30;;;;;;4911328;29;20032;-73
2022/08/30 11:58:05;;;;;;;0.35;0.20;;;15.60;92.40;;;;;;4912154;29;20054;-74
2022/08/30 12:00:40;;;;;;;0.30;0.20;;;15.50;92.60;;;;;;4902236;29;20483;-74
2022/08/30 12:03:07;;;;;;;1.95;0.20;;;15.40;92.90;;;;;;4899676;29;20040;-75
2022/08/30 12:05:38;;;;;;;0.98;0.20;;;15.30;93.00;;;;;;4911181;29;20032;-73
2022/08/30 12:08:07;;;;;;;1.73;0.30;;;15.20;93.10;;;;;;4911353;29;20074;-76
2022/08/30 12:10:57;;;;;;;2.05;0.40;;;15.10;93.30;;;;;;4908770;29;20057;-75
2022/08/30 12:13:51;;;;;;;1.80;0.30;;;15.00;93.70;;;;;;4908275;29;20075;-73
2022/08/30 12:18:26;;;;;;;0.52;0.20;;;14.90;93.80;;;;;;4908960;29;20451;-73
2022/08/30 12:19:29;;;;;;;1.77;0.20;;;14.80;93.90;;;;;;4907142;29;20032;-75
2022/08/30 12:22:00;;;;;;;0.57;0.15;;;14.70;94.10;;;;;;4911621;29;20039;-74
2022/08/30 12:24:42;;;;;;;1.58;0.43;;;14.60;94.30;;;;;;4910503;29;20036;-75
2022/08/30 12:27:24;;;;;;;1.92;0.40;;;14.60;94.50;;;;;;4908786;29;20373;-75
2022/08/30 12:30:06;;;;;;;0.70;0.22;;;14.40;94.70;;;;;;4907858;29;20040;-75
2022/08/30 12:32:41;;;;;;;1.05;0.30;;;14.30;94.90;;;;;;4911199;29;20441;-76
2022/08/30 12:35:22;;;;;;;0.68;0.30;;;14.20;95.30;;;;;;4911617;29;20111;-75
2022/08/30 12:38:00;;;;;;;1.70;0.38;;;14.10;95.90;;;;;;4909639;29;20083;-75
2022/08/30 12:40:33;;;;;;;1.30;0.52;;;14.00;96.00;;;;;;4911482;29;20032;-74
2022/08/30 12:43:22;;;;;;;0.43;0.22;;;14.00;96.10;;;;;;4913419;29;20087;-74
2022/08/30 12:45:50;;;;;;;1.08;0.40;;;13.80;96.20;;;;;;4916097;29;20034;-76
2022/08/30 12:48:19;;;;;;;1.65;0.40;;;13.70;96.80;;;;;;4908984;29;20424;-74
2022/08/30 12:50:53;;;;;;;1.60;0.50;;;13.70;96.90;;;;;;4914544;29;20787;-75
2022/08/30 12:53:26;;;;;;;1.33;0.38;;;13.60;97.00;;;;;;4906909;29;20046;-74
2022/08/30 12:55:54;;;;;;;1.85;0.77;;;13.60;96.90;;;;;;4916069;29;20361;-77
2022/08/30 12:58:50;;;;;;;1.48;0.30;;;13.50;97.00;;;;;;4912203;29;20184;-75
2022/08/30 13:01:32;;;;;;;1.65;0.30;;;13.50;97.30;;;;;;4913498;29;20039;-74
2022/08/30 13:04:17;;;;;;;1.25;0.32;;;13.40;97.80;;;;;;4913943;29;20075;-74
2022/08/30 13:06:51;;;;;;;0.45;0.30;;;13.40;98.00;;;;;;4907847;29;20087;-73
2022/08/30 13:09:34;;;;;;;1.05;0.30;;;13.30;98.00;;;;;;4913285;29;20056;-73
2022/08/30 13:12:22;;;;;;;0.93;0.20;;;13.20;98.10;;;;;;4904859;29;20051;-73
2022/08/30 13:14:52;;;;;;;2.75;0.30;;;13.10;98.50;;;;;;4914606;29;20151;-73
2022/08/30 13:17:22;;;;;;;0.77;0.30;;;12.90;98.80;;;;;;4915102;29;20052;-74
2022/08/30 13:20:06;;;;;;;0.50;0.20;;;12.90;99.00;;;;;;4912499;29;20568;-73
2022/08/30 13:22:39;;;;;;;0.93;0.30;;;12.80;99.20;;;;;;4913052;29;20138;-74